sensor_id;sensor_type;location;lat;lon;timestamp;P1;durP1;ratioP1;P2;durP2;ratioP2
7359;SDS011;3720;48.274;7.796;2023-04-15T00:02:15;8.30;;;3.30;;
7359;SDS011;3720;48.274;7.796;2023-04-15T00:04:47;8.63;;;3.33;;
7359;SDS011;3720;48.274;7.796;2023-04-15T00:07:19;6.00;;;3.13;;
7359;SDS011;3720;48.274;7.796;2023-04-15T00:09:51;7.85;;;3.50;;
7359;SDS011;3720;48.274;7.796;2023-04-15T00:12:27;7.70;;;3.65;;
7359;SDS011;3720;48.274;7.796;2023-04-15T00:14:58;6.15;;;3.67;;
7359;SDS011;3720;48.274;7.796;2023-04-15T00:17:32;8.40;;;4.25;;
7359;SDS011;3720;48.274;7.796;2023-04-15T00:20:05;7.82;;;3.90;;
7359;SDS011;3720;48.274;7.796;2023-04-15T00:22:37;8.82;;;4.18;;
7359;SDS011;3720;48.274;7.796;2023-04-15T00:25:09;8.30;;;3.70;;
7359;SDS011;3720;48.274;7.796;2023-04-15T00:27:41;5.90;;;3.00;;
7359;SDS011;3720;48.274;7.796;2023-04-15T00:30:13;4.22;;;2.13;;
7359;SDS011;3720;48.274;7.796;2023-04-15T00:32:46;4.78;;;2.22;;
7359;SDS011;3720;48.274;7.796;2023-04-15T00:35:18;5.43;;;1.85;;
7359;SDS011;3720;48.274;7.796;2023-04-15T00:37:50;2.90;;;1.60;;
7359;SDS011;3720;48.274;7.796;2023-04-15T00:40:23;6.43;;;1.60;;
7359;SDS011;3720;48.274;7.796;2023-04-15T00:42:55;6.47;;;1.63;;
7359;SDS011;3720;48.274;7.796;2023-04-15T00:45:27;4.95;;;2.00;;
7359;SDS011;3720;48.274;7.796;2023-04-15T00:48:00;5.45;;;2.05;;
7359;SDS011;3720;48.274;7.796;2023-04-15T00:50:33;7.40;;;2.10;;
7359;SDS011;3720;48.274;7.796;2023-04-15T00:53:05;8.13;;;2.22;;
7359;SDS011;3720;48.274;7.796;2023-04-15T00:55:37;6.72;;;2.33;;
7359;SDS011;3720;48.274;7.796;2023-04-15T00:58:09;6.00;;;2.50;;
7359;SDS011;3720;48.274;7.796;2023-04-15T01:00:41;4.55;;;2.50;;
7359;SDS011;3720;48.274;7.796;2023-04-15T01:03:15;5.63;;;2.45;;
7359;SDS011;3720;48.274;7.796;2023-04-15T01:05:47;6.93;;;2.50;;
7359;SDS011;3720;48.274;7.796;2023-04-15T01:08:20;4.80;;;2.20;;
7359;SDS011;3720;48.274;7.796;2023-04-15T01:10:53;5.70;;;2.17;;
7359;SDS011;3720;48.274;7.796;2023-04-15T01:13:25;4.55;;;2.50;;
7359;SDS011;3720;48.274;7.796;2023-04-15T01:15:57;4.95;;;2.30;;
7359;SDS011;3720;48.274;7.796;2023-04-15T01:18:31;6.70;;;2.50;;
7359;SDS011;3720;48.274;7.796;2023-04-15T01:21:03;4.82;;;2.38;;
7359;SDS011;3720;48.274;7.796;2023-04-15T01:23:37;4.97;;;2.45;;
7359;SDS011;3720;48.274;7.796;2023-04-15T01:26:11;4.07;;;2.00;;
7359;SDS011;3720;48.274;7.796;2023-04-15T01:28:43;4.72;;;2.28;;
7359;SDS011;3720;48.274;7.796;2023-04-15T01:31:15;4.20;;;2.17;;
7359;SDS011;3720;48.274;7.796;2023-04-15T01:33:47;7.30;;;2.20;;
7359;SDS011;3720;48.274;7.796;2023-04-15T01:36:19;3.75;;;1.95;;
7359;SDS011;3720;48.274;7.796;2023-04-15T01:38:51;4.60;;;1.60;;
7359;SDS011;3720;48.274;7.796;2023-04-15T01:41:25;4.97;;;1.58;;
7359;SDS011;3720;48.274;7.796;2023-04-15T01:43:58;2.72;;;1.40;;
7359;SDS011;3720;48.274;7.796;2023-04-15T01:46:30;4.35;;;1.70;;
7359;SDS011;3720;48.274;7.796;2023-04-15T01:49:02;3.15;;;1.90;;
7359;SDS011;3720;48.274;7.796;2023-04-15T01:51:34;3.67;;;2.10;;
7359;SDS011;3720;48.274;7.796;2023-04-15T01:54:06;4.57;;;1.90;;
7359;SDS011;3720;48.274;7.796;2023-04-15T01:56:39;2.58;;;1.80;;
7359;SDS011;3720;48.274;7.796;2023-04-15T01:59:11;6.65;;;1.95;;
7359;SDS011;3720;48.274;7.796;2023-04-15T02:01:43;5.18;;;1.83;;
7359;SDS011;3720;48.274;7.796;2023-04-15T02:04:16;5.50;;;1.90;;
7359;SDS011;3720;48.274;7.796;2023-04-15T02:06:48;2.63;;;1.52;;
7359;SDS011;3720;48.274;7.796;2023-04-15T02:09:19;5.13;;;1.98;;
7359;SDS011;3720;48.274;7.796;2023-04-15T02:11:53;5.82;;;1.73;;
7359;SDS011;3720;48.274;7.796;2023-04-15T02:14:25;5.47;;;1.90;;
7359;SDS011;3720;48.274;7.796;2023-04-15T02:16:57;3.80;;;1.70;;
7359;SDS011;3720;48.274;7.796;2023-04-15T02:19:36;4.30;;;2.00;;
7359;SDS011;3720;48.274;7.796;2023-04-15T02:22:08;4.95;;;2.05;;
7359;SDS011;3720;48.274;7.796;2023-04-15T02:24:44;5.22;;;2.08;;
7359;SDS011;3720;48.274;7.796;2023-04-15T02:27:17;6.10;;;2.10;;
7359;SDS011;3720;48.274;7.796;2023-04-15T02:29:49;4.07;;;2.00;;
7359;SDS011;3720;48.274;7.796;2023-04-15T02:32:21;5.78;;;2.25;;
7359;SDS011;3720;48.274;7.796;2023-04-15T02:34:53;3.00;;;1.80;;
7359;SDS011;3720;48.274;7.796;2023-04-15T02:37:25;4.28;;;2.03;;
7359;SDS011;3720;48.274;7.796;2023-04-15T02:39:57;3.83;;;2.05;;
7359;SDS011;3720;48.274;7.796;2023-04-15T02:42:31;6.68;;;2.00;;
7359;SDS011;3720;48.274;7.796;2023-04-15T02:45:03;2.83;;;1.77;;
7359;SDS011;3720;48.274;7.796;2023-04-15T02:47:36;3.58;;;1.70;;
7359;SDS011;3720;48.274;7.796;2023-04-15T02:50:10;4.80;;;1.80;;
7359;SDS011;3720;48.274;7.796;2023-04-15T02:52:44;6.28;;;1.80;;
7359;SDS011;3720;48.274;7.796;2023-04-15T02:55:15;3.95;;;1.88;;
7359;SDS011;3720;48.274;7.796;2023-04-15T02:57:49;5.88;;;2.13;;
7359;SDS011;3720;48.274;7.796;2023-04-15T03:00:21;4.55;;;2.17;;
7359;SDS011;3720;48.274;7.796;2023-04-15T03:02:56;3.85;;;1.80;;
7359;SDS011;3720;48.274;7.796;2023-04-15T03:05:29;4.53;;;1.98;;
7359;SDS011;3720;48.274;7.796;2023-04-15T03:08:01;4.63;;;1.95;;
7359;SDS011;3720;48.274;7.796;2023-04-15T03:10:33;5.70;;;2.35;;
7359;SDS011;3720;48.274;7.796;2023-04-15T03:13:07;4.35;;;2.08;;
7359;SDS011;3720;48.274;7.796;2023-04-15T03:15:38;3.80;;;1.70;;
7359;SDS011;3720;48.274;7.796;2023-04-15T03:18:11;7.88;;;2.40;;
7359;SDS011;3720;48.274;7.796;2023-04-15T03:20:42;4.45;;;2.00;;
7359;SDS011;3720;48.274;7.796;2023-04-15T03:23:14;4.70;;;1.80;;
7359;SDS011;3720;48.274;7.796;2023-04-15T03:25:46;3.80;;;1.70;;
7359;SDS011;3720;48.274;7.796;2023-04-15T03:28:19;4.38;;;1.60;;
7359;SDS011;3720;48.274;7.796;2023-04-15T03:30:52;4.13;;;1.70;;
7359;SDS011;3720;48.274;7.796;2023-04-15T03:33:23;3.22;;;1.60;;
7359;SDS011;3720;48.274;7.796;2023-04-15T03:35:55;3.45;;;1.55;;
7359;SDS011;3720;48.274;7.796;2023-04-15T03:38:27;3.50;;;1.70;;
7359;SDS011;3720;48.274;7.796;2023-04-15T03:40:59;2.75;;;1.70;;
7359;SDS011;3720;48.274;7.796;2023-04-15T03:43:32;3.92;;;1.63;;
7359;SDS011;3720;48.274;7.796;2023-04-15T03:46:04;2.67;;;1.60;;
7359;SDS011;3720;48.274;7.796;2023-04-15T03:48:36;3.58;;;1.80;;
7359;SDS011;3720;48.274;7.796;2023-04-15T03:51:08;3.15;;;1.63;;
7359;SDS011;3720;48.274;7.796;2023-04-15T03:53:40;4.53;;;1.83;;
7359;SDS011;3720;48.274;7.796;2023-04-15T03:56:12;3.90;;;1.65;;
7359;SDS011;3720;48.274;7.796;2023-04-15T03:58:45;3.53;;;1.70;;
7359;SDS011;3720;48.274;7.796;2023-04-15T04:01:17;2.03;;;1.40;;
7359;SDS011;3720;48.274;7.796;2023-04-15T04:03:49;3.10;;;1.67;;
7359;SDS011;3720;48.274;7.796;2023-04-15T04:06:21;3.20;;;1.73;;
7359;SDS011;3720;48.274;7.796;2023-04-15T04:08:53;3.03;;;1.90;;
7359;SDS011;3720;48.274;7.796;2023-04-15T04:11:25;3.15;;;1.60;;
7359;SDS011;3720;48.274;7.796;2023-04-15T04:13:59;5.90;;;2.03;;
7359;SDS011;3720;48.274;7.796;2023-04-15T04:16:31;4.00;;;2.38;;
7359;SDS011;3720;48.274;7.796;2023-04-15T04:19:03;5.55;;;2.67;;
7359;SDS011;3720;48.274;7.796;2023-04-15T04:21:35;5.68;;;2.80;;
7359;SDS011;3720;48.274;7.796;2023-04-15T04:24:08;5.30;;;2.55;;
7359;SDS011;3720;48.274;7.796;2023-04-15T04:26:40;5.20;;;2.63;;
7359;SDS011;3720;48.274;7.796;2023-04-15T04:29:14;5.10;;;2.60;;
7359;SDS011;3720;48.274;7.796;2023-04-15T04:31:45;3.83;;;2.40;;
7359;SDS011;3720;48.274;7.796;2023-04-15T04:34:17;4.93;;;2.50;;
7359;SDS011;3720;48.274;7.796;2023-04-15T04:36:49;4.55;;;2.47;;
7359;SDS011;3720;48.274;7.796;2023-04-15T04:39:21;5.47;;;2.25;;
7359;SDS011;3720;48.274;7.796;2023-04-15T04:41:53;5.28;;;2.55;;
7359;SDS011;3720;48.274;7.796;2023-04-15T04:44:26;5.28;;;2.78;;
7359;SDS011;3720;48.274;7.796;2023-04-15T04:46:58;5.78;;;2.60;;
7359;SDS011;3720;48.274;7.796;2023-04-15T04:49:30;5.15;;;2.80;;
7359;SDS011;3720;48.274;7.796;2023-04-15T04:52:02;5.55;;;2.70;;
7359;SDS011;3720;48.274;7.796;2023-04-15T04:54:34;6.25;;;2.70;;
7359;SDS011;3720;48.274;7.796;2023-04-15T04:57:06;5.85;;;2.70;;
7359;SDS011;3720;48.274;7.796;2023-04-15T04:59:39;5.65;;;2.53;;
7359;SDS011;3720;48.274;7.796;2023-04-15T05:02:11;5.65;;;2.40;;
7359;SDS011;3720;48.274;7.796;2023-04-15T05:04:44;4.78;;;2.45;;
7359;SDS011;3720;48.274;7.796;2023-04-15T05:07:15;4.72;;;2.30;;
7359;SDS011;3720;48.274;7.796;2023-04-15T05:09:47;4.80;;;2.30;;
7359;SDS011;3720;48.274;7.796;2023-04-15T05:12:19;4.90;;;2.30;;
7359;SDS011;3720;48.274;7.796;2023-04-15T05:14:52;6.35;;;2.33;;
7359;SDS011;3720;48.274;7.796;2023-04-15T05:17:24;7.65;;;2.28;;
7359;SDS011;3720;48.274;7.796;2023-04-15T05:19:56;6.25;;;2.63;;
7359;SDS011;3720;48.274;7.796;2023-04-15T05:22:28;8.43;;;2.80;;
7359;SDS011;3720;48.274;7.796;2023-04-15T05:25:00;4.95;;;3.00;;
7359;SDS011;3720;48.274;7.796;2023-04-15T05:27:32;7.85;;;2.85;;
7359;SDS011;3720;48.274;7.796;2023-04-15T05:30:07;5.43;;;2.60;;
7359;SDS011;3720;48.274;7.796;2023-04-15T05:32:39;4.32;;;2.50;;
7359;SDS011;3720;48.274;7.796;2023-04-15T05:35:11;4.97;;;2.33;;
7359;SDS011;3720;48.274;7.796;2023-04-15T05:37:43;5.03;;;2.60;;
7359;SDS011;3720;48.274;7.796;2023-04-15T05:40:16;6.22;;;2.70;;
7359;SDS011;3720;48.274;7.796;2023-04-15T05:42:49;4.95;;;2.30;;
7359;SDS011;3720;48.274;7.796;2023-04-15T05:45:22;4.50;;;2.53;;
7359;SDS011;3720;48.274;7.796;2023-04-15T05:47:54;5.45;;;2.80;;
7359;SDS011;3720;48.274;7.796;2023-04-15T05:50:26;5.68;;;3.22;;
7359;SDS011;3720;48.274;7.796;2023-04-15T05:52:57;7.30;;;2.90;;
7359;SDS011;3720;48.274;7.796;2023-04-15T05:55:29;4.95;;;3.25;;
7359;SDS011;3720;48.274;7.796;2023-04-15T05:58:01;5.97;;;3.17;;
7359;SDS011;3720;48.274;7.796;2023-04-15T06:00:35;4.90;;;2.80;;
7359;SDS011;3720;48.274;7.796;2023-04-15T06:03:07;3.30;;;2.40;;
7359;SDS011;3720;48.274;7.796;2023-04-15T06:05:40;3.80;;;2.65;;
7359;SDS011;3720;48.274;7.796;2023-04-15T06:08:13;6.18;;;2.30;;
7359;SDS011;3720;48.274;7.796;2023-04-15T06:10:46;5.18;;;2.42;;
7359;SDS011;3720;48.274;7.796;2023-04-15T06:13:18;3.90;;;2.50;;
7359;SDS011;3720;48.274;7.796;2023-04-15T06:15:51;5.38;;;2.40;;
7359;SDS011;3720;48.274;7.796;2023-04-15T06:18:23;5.82;;;2.50;;
7359;SDS011;3720;48.274;7.796;2023-04-15T06:20:55;6.05;;;2.83;;
7359;SDS011;3720;48.274;7.796;2023-04-15T06:23:27;5.78;;;2.50;;
7359;SDS011;3720;48.274;7.796;2023-04-15T06:26:00;5.47;;;2.80;;
7359;SDS011;3720;48.274;7.796;2023-04-15T06:28:32;4.57;;;2.60;;
7359;SDS011;3720;48.274;7.796;2023-04-15T06:31:05;7.95;;;2.60;;
7359;SDS011;3720;48.274;7.796;2023-04-15T06:33:37;4.97;;;2.88;;
7359;SDS011;3720;48.274;7.796;2023-04-15T06:36:09;5.85;;;2.83;;
7359;SDS011;3720;48.274;7.796;2023-04-15T06:38:41;5.63;;;2.92;;
7359;SDS011;3720;48.274;7.796;2023-04-15T06:41:13;5.97;;;3.10;;
7359;SDS011;3720;48.274;7.796;2023-04-15T06:43:45;6.13;;;3.30;;
7359;SDS011;3720;48.274;7.796;2023-04-15T06:46:19;7.10;;;3.80;;
7359;SDS011;3720;48.274;7.796;2023-04-15T06:48:51;5.90;;;3.38;;
7359;SDS011;3720;48.274;7.796;2023-04-15T06:51:22;5.95;;;3.20;;
7359;SDS011;3720;48.274;7.796;2023-04-15T06:53:54;4.47;;;3.05;;
7359;SDS011;3720;48.274;7.796;2023-04-15T06:56:26;5.28;;;3.10;;
7359;SDS011;3720;48.274;7.796;2023-04-15T06:58:59;5.90;;;3.10;;
7359;SDS011;3720;48.274;7.796;2023-04-15T07:04:06;4.70;;;2.33;;
7359;SDS011;3720;48.274;7.796;2023-04-15T07:06:37;3.67;;;2.00;;
7359;SDS011;3720;48.274;7.796;2023-04-15T07:09:10;6.20;;;2.50;;
7359;SDS011;3720;48.274;7.796;2023-04-15T07:11:42;3.53;;;2.15;;
7359;SDS011;3720;48.274;7.796;2023-04-15T07:14:14;6.55;;;2.20;;
7359;SDS011;3720;48.274;7.796;2023-04-15T07:16:47;5.03;;;2.58;;
7359;SDS011;3720;48.274;7.796;2023-04-15T07:19:20;4.32;;;2.53;;
7359;SDS011;3720;48.274;7.796;2023-04-15T07:21:52;4.05;;;2.70;;
7359;SDS011;3720;48.274;7.796;2023-04-15T07:24:24;4.57;;;2.70;;
7359;SDS011;3720;48.274;7.796;2023-04-15T07:26:56;5.40;;;2.90;;
7359;SDS011;3720;48.274;7.796;2023-04-15T07:29:28;4.13;;;2.50;;
7359;SDS011;3720;48.274;7.796;2023-04-15T07:32:02;5.80;;;2.60;;
7359;SDS011;3720;48.274;7.796;2023-04-15T07:34:34;4.10;;;2.33;;
7359;SDS011;3720;48.274;7.796;2023-04-15T07:37:07;5.93;;;2.90;;
7359;SDS011;3720;48.274;7.796;2023-04-15T07:39:39;7.53;;;2.83;;
7359;SDS011;3720;48.274;7.796;2023-04-15T07:42:11;5.20;;;3.00;;
7359;SDS011;3720;48.274;7.796;2023-04-15T07:44:44;9.25;;;4.40;;
7359;SDS011;3720;48.274;7.796;2023-04-15T07:47:17;8.27;;;3.90;;
7359;SDS011;3720;48.274;7.796;2023-04-15T07:49:50;6.32;;;3.88;;
7359;SDS011;3720;48.274;7.796;2023-04-15T07:52:21;8.07;;;4.30;;
7359;SDS011;3720;48.274;7.796;2023-04-15T07:54:54;7.55;;;3.80;;
7359;SDS011;3720;48.274;7.796;2023-04-15T07:57:25;6.60;;;4.43;;
7359;SDS011;3720;48.274;7.796;2023-04-15T07:59:57;7.07;;;3.95;;
7359;SDS011;3720;48.274;7.796;2023-04-15T08:02:31;8.35;;;3.80;;
7359;SDS011;3720;48.274;7.796;2023-04-15T08:05:03;7.47;;;3.80;;
7359;SDS011;3720;48.274;7.796;2023-04-15T08:07:36;8.50;;;3.67;;
7359;SDS011;3720;48.274;7.796;2023-04-15T08:10:09;7.30;;;2.90;;
7359;SDS011;3720;48.274;7.796;2023-04-15T08:12:42;3.65;;;2.33;;
7359;SDS011;3720;48.274;7.796;2023-04-15T08:15:18;5.20;;;2.53;;
7359;SDS011;3720;48.274;7.796;2023-04-15T08:17:52;3.55;;;2.25;;
7359;SDS011;3720;48.274;7.796;2023-04-15T08:20:23;6.18;;;2.40;;
7359;SDS011;3720;48.274;7.796;2023-04-15T08:22:55;5.65;;;2.33;;
7359;SDS011;3720;48.274;7.796;2023-04-15T08:25:27;4.97;;;2.50;;
7359;SDS011;3720;48.274;7.796;2023-04-15T08:28:02;5.13;;;2.30;;
7359;SDS011;3720;48.274;7.796;2023-04-15T08:30:36;8.07;;;2.65;;
7359;SDS011;3720;48.274;7.796;2023-04-15T08:33:09;6.95;;;2.58;;
7359;SDS011;3720;48.274;7.796;2023-04-15T08:35:51;3.78;;;2.15;;
7359;SDS011;3720;48.274;7.796;2023-04-15T08:38:23;5.43;;;2.10;;
7359;SDS011;3720;48.274;7.796;2023-04-15T08:40:55;4.60;;;2.22;;
7359;SDS011;3720;48.274;7.796;2023-04-15T08:43:31;4.10;;;1.98;;
7359;SDS011;3720;48.274;7.796;2023-04-15T08:46:05;6.07;;;2.67;;
7359;SDS011;3720;48.274;7.796;2023-04-15T08:48:41;3.97;;;2.40;;
7359;SDS011;3720;48.274;7.796;2023-04-15T08:51:13;3.45;;;2.13;;
7359;SDS011;3720;48.274;7.796;2023-04-15T08:53:46;5.25;;;2.17;;
7359;SDS011;3720;48.274;7.796;2023-04-15T08:56:19;3.92;;;2.10;;
7359;SDS011;3720;48.274;7.796;2023-04-15T08:58:53;7.20;;;2.38;;
7359;SDS011;3720;48.274;7.796;2023-04-15T09:01:25;5.22;;;2.60;;
7359;SDS011;3720;48.274;7.796;2023-04-15T09:03:59;4.90;;;2.50;;
7359;SDS011;3720;48.274;7.796;2023-04-15T09:06:35;6.57;;;2.60;;
7359;SDS011;3720;48.274;7.796;2023-04-15T09:09:11;3.10;;;2.30;;
7359;SDS011;3720;48.274;7.796;2023-04-15T09:11:43;4.20;;;2.30;;
7359;SDS011;3720;48.274;7.796;2023-04-15T09:14:16;6.30;;;2.60;;
7359;SDS011;3720;48.274;7.796;2023-04-15T09:16:57;5.53;;;2.33;;
7359;SDS011;3720;48.274;7.796;2023-04-15T09:19:32;4.63;;;2.80;;
7359;SDS011;3720;48.274;7.796;2023-04-15T09:22:04;5.35;;;3.20;;
7359;SDS011;3720;48.274;7.796;2023-04-15T09:24:37;7.53;;;3.03;;
7359;SDS011;3720;48.274;7.796;2023-04-15T09:27:12;4.75;;;2.83;;
7359;SDS011;3720;48.274;7.796;2023-04-15T09:29:48;5.43;;;2.80;;
7359;SDS011;3720;48.274;7.796;2023-04-15T09:32:21;4.28;;;2.47;;
7359;SDS011;3720;48.274;7.796;2023-04-15T09:34:55;5.97;;;2.88;;
7359;SDS011;3720;48.274;7.796;2023-04-15T09:37:33;5.45;;;2.47;;
7359;SDS011;3720;48.274;7.796;2023-04-15T09:40:07;6.25;;;2.63;;
7359;SDS011;3720;48.274;7.796;2023-04-15T09:42:54;3.55;;;2.67;;
7359;SDS011;3720;48.274;7.796;2023-04-15T09:45:26;4.30;;;2.50;;
7359;SDS011;3720;48.274;7.796;2023-04-15T09:47:59;4.60;;;2.40;;
7359;SDS011;3720;48.274;7.796;2023-04-15T09:50:48;4.43;;;2.47;;
7359;SDS011;3720;48.274;7.796;2023-04-15T09:53:23;6.10;;;2.55;;
7359;SDS011;3720;48.274;7.796;2023-04-15T09:55:56;6.95;;;2.63;;
7359;SDS011;3720;48.274;7.796;2023-04-15T09:58:30;4.45;;;2.10;;
7359;SDS011;3720;48.274;7.796;2023-04-15T10:01:04;4.38;;;2.00;;
7359;SDS011;3720;48.274;7.796;2023-04-15T10:03:38;4.15;;;2.25;;
7359;SDS011;3720;48.274;7.796;2023-04-15T10:06:12;4.53;;;1.90;;
7359;SDS011;3720;48.274;7.796;2023-04-15T10:08:45;4.10;;;1.60;;
7359;SDS011;3720;48.274;7.796;2023-04-15T10:11:18;5.43;;;2.05;;
7359;SDS011;3720;48.274;7.796;2023-04-15T10:13:53;2.83;;;1.75;;
7359;SDS011;3720;48.274;7.796;2023-04-15T10:16:26;5.30;;;2.10;;
7359;SDS011;3720;48.274;7.796;2023-04-15T10:19:00;4.32;;;2.20;;
7359;SDS011;3720;48.274;7.796;2023-04-15T10:21:34;5.05;;;2.03;;
7359;SDS011;3720;48.274;7.796;2023-04-15T10:24:08;2.30;;;1.42;;
7359;SDS011;3720;48.274;7.796;2023-04-15T10:26:41;3.72;;;1.92;;
7359;SDS011;3720;48.274;7.796;2023-04-15T10:29:14;5.47;;;2.05;;
7359;SDS011;3720;48.274;7.796;2023-04-15T10:31:47;8.30;;;2.92;;
7359;SDS011;3720;48.274;7.796;2023-04-15T10:34:20;4.68;;;2.58;;
7359;SDS011;3720;48.274;7.796;2023-04-15T10:36:55;5.93;;;2.35;;
7359;SDS011;3720;48.274;7.796;2023-04-15T10:39:38;7.10;;;2.80;;
7359;SDS011;3720;48.274;7.796;2023-04-15T10:42:14;5.75;;;2.58;;
7359;SDS011;3720;48.274;7.796;2023-04-15T10:44:47;6.90;;;2.72;;
7359;SDS011;3720;48.274;7.796;2023-04-15T10:47:20;6.07;;;2.13;;
7359;SDS011;3720;48.274;7.796;2023-04-15T10:49:55;6.13;;;2.20;;
7359;SDS011;3720;48.274;7.796;2023-04-15T10:52:30;5.63;;;2.00;;
7359;SDS011;3720;48.274;7.796;2023-04-15T10:55:03;5.40;;;2.08;;
7359;SDS011;3720;48.274;7.796;2023-04-15T10:57:44;5.95;;;2.50;;
7359;SDS011;3720;48.274;7.796;2023-04-15T11:00:17;4.30;;;2.08;;
7359;SDS011;3720;48.274;7.796;2023-04-15T11:02:51;4.75;;;2.17;;
7359;SDS011;3720;48.274;7.796;2023-04-15T11:08:51;4.75;;;2.58;;
7359;SDS011;3720;48.274;7.796;2023-04-15T11:14:30;5.32;;;2.13;;
7359;SDS011;3720;48.274;7.796;2023-04-15T11:17:04;4.78;;;2.20;;
7359;SDS011;3720;48.274;7.796;2023-04-15T11:19:36;4.30;;;2.05;;
7359;SDS011;3720;48.274;7.796;2023-04-15T11:22:09;4.13;;;2.08;;
7359;SDS011;3720;48.274;7.796;2023-04-15T11:24:47;4.22;;;1.90;;
7359;SDS011;3720;48.274;7.796;2023-04-15T11:27:20;6.22;;;2.30;;
7359;SDS011;3720;48.274;7.796;2023-04-15T11:29:52;5.15;;;2.53;;
7359;SDS011;3720;48.274;7.796;2023-04-15T11:32:24;4.00;;;2.53;;
7359;SDS011;3720;48.274;7.796;2023-04-15T11:34:56;4.50;;;2.33;;
7359;SDS011;3720;48.274;7.796;2023-04-15T11:37:28;3.95;;;2.22;;
7359;SDS011;3720;48.274;7.796;2023-04-15T11:40:05;3.65;;;2.03;;
7359;SDS011;3720;48.274;7.796;2023-04-15T11:42:38;4.22;;;2.22;;
7359;SDS011;3720;48.274;7.796;2023-04-15T11:45:10;3.72;;;2.10;;
7359;SDS011;3720;48.274;7.796;2023-04-15T11:47:43;2.63;;;1.50;;
7359;SDS011;3720;48.274;7.796;2023-04-15T11:50:16;4.47;;;1.60;;
7359;SDS011;3720;48.274;7.796;2023-04-15T11:52:51;4.35;;;1.90;;
7359;SDS011;3720;48.274;7.796;2023-04-15T11:55:25;4.30;;;1.88;;
7359;SDS011;3720;48.274;7.796;2023-04-15T11:58:07;3.60;;;1.60;;
7359;SDS011;3720;48.274;7.796;2023-04-15T12:00:41;3.72;;;1.70;;
7359;SDS011;3720;48.274;7.796;2023-04-15T12:03:20;3.65;;;1.88;;
7359;SDS011;3720;48.274;7.796;2023-04-15T12:08:56;4.22;;;1.83;;
7359;SDS011;3720;48.274;7.796;2023-04-15T12:11:36;4.85;;;1.90;;
7359;SDS011;3720;48.274;7.796;2023-04-15T12:14:11;4.77;;;2.10;;
7359;SDS011;3720;48.274;7.796;2023-04-15T12:16:46;4.57;;;1.70;;
7359;SDS011;3720;48.274;7.796;2023-04-15T12:19:23;3.17;;;1.60;;
7359;SDS011;3720;48.274;7.796;2023-04-15T12:21:57;3.22;;;1.80;;
7359;SDS011;3720;48.274;7.796;2023-04-15T12:24:31;5.07;;;1.73;;
7359;SDS011;3720;48.274;7.796;2023-04-15T12:27:05;4.68;;;2.00;;
7359;SDS011;3720;48.274;7.796;2023-04-15T12:29:39;5.15;;;2.33;;
7359;SDS011;3720;48.274;7.796;2023-04-15T12:32:12;3.85;;;1.55;;
7359;SDS011;3720;48.274;7.796;2023-04-15T12:34:48;4.25;;;1.70;;
7359;SDS011;3720;48.274;7.796;2023-04-15T12:37:20;4.57;;;1.50;;
7359;SDS011;3720;48.274;7.796;2023-04-15T12:39:53;2.90;;;1.42;;
7359;SDS011;3720;48.274;7.796;2023-04-15T12:42:26;3.47;;;1.70;;
7359;SDS011;3720;48.274;7.796;2023-04-15T12:44:58;4.30;;;1.70;;
7359;SDS011;3720;48.274;7.796;2023-04-15T12:47:30;3.30;;;1.77;;
7359;SDS011;3720;48.274;7.796;2023-04-15T12:50:02;4.22;;;1.65;;
7359;SDS011;3720;48.274;7.796;2023-04-15T12:52:35;7.15;;;1.90;;
7359;SDS011;3720;48.274;7.796;2023-04-15T12:55:08;5.53;;;1.40;;
7359;SDS011;3720;48.274;7.796;2023-04-15T12:57:41;3.45;;;1.55;;
7359;SDS011;3720;48.274;7.796;2023-04-15T13:00:13;4.07;;;1.45;;
7359;SDS011;3720;48.274;7.796;2023-04-15T13:02:46;4.07;;;1.48;;
7359;SDS011;3720;48.274;7.796;2023-04-15T13:05:18;2.35;;;1.13;;
7359;SDS011;3720;48.274;7.796;2023-04-15T13:07:50;2.58;;;1.10;;
7359;SDS011;3720;48.274;7.796;2023-04-15T13:10:22;1.88;;;0.90;;
7359;SDS011;3720;48.274;7.796;2023-04-15T13:12:55;3.17;;;1.05;;
7359;SDS011;3720;48.274;7.796;2023-04-15T13:15:28;2.88;;;0.88;;
7359;SDS011;3720;48.274;7.796;2023-04-15T13:18:00;2.67;;;0.90;;
7359;SDS011;3720;48.274;7.796;2023-04-15T13:20:32;1.85;;;0.90;;
7359;SDS011;3720;48.274;7.796;2023-04-15T13:23:04;2.80;;;1.13;;
7359;SDS011;3720;48.274;7.796;2023-04-15T13:25:36;2.88;;;1.10;;
7359;SDS011;3720;48.274;7.796;2023-04-15T13:28:09;2.20;;;1.00;;
7359;SDS011;3720;48.274;7.796;2023-04-15T13:30:42;2.13;;;1.10;;
7359;SDS011;3720;48.274;7.796;2023-04-15T13:33:15;1.75;;;1.00;;
7359;SDS011;3720;48.274;7.796;2023-04-15T13:35:47;3.15;;;1.10;;
7359;SDS011;3720;48.274;7.796;2023-04-15T13:38:19;4.80;;;1.23;;
7359;SDS011;3720;48.274;7.796;2023-04-15T13:40:51;2.97;;;1.17;;
7359;SDS011;3720;48.274;7.796;2023-04-15T13:43:24;5.15;;;1.33;;
7359;SDS011;3720;48.274;7.796;2023-04-15T13:45:56;4.43;;;1.10;;
7359;SDS011;3720;48.274;7.796;2023-04-15T13:48:28;3.72;;;1.20;;
7359;SDS011;3720;48.274;7.796;2023-04-15T13:51:00;6.55;;;1.15;;
7359;SDS011;3720;48.274;7.796;2023-04-15T13:53:32;2.65;;;1.00;;
7359;SDS011;3720;48.274;7.796;2023-04-15T13:56:05;2.80;;;1.70;;
7359;SDS011;3720;48.274;7.796;2023-04-15T13:58:38;3.20;;;1.52;;
7359;SDS011;3720;48.274;7.796;2023-04-15T14:01:11;3.65;;;1.20;;
7359;SDS011;3720;48.274;7.796;2023-04-15T14:03:43;3.28;;;1.30;;
7359;SDS011;3720;48.274;7.796;2023-04-15T14:06:15;2.65;;;1.38;;
7359;SDS011;3720;48.274;7.796;2023-04-15T14:08:47;2.95;;;1.40;;
7359;SDS011;3720;48.274;7.796;2023-04-15T14:11:19;3.17;;;1.20;;
7359;SDS011;3720;48.274;7.796;2023-04-15T14:13:53;3.20;;;1.23;;
7359;SDS011;3720;48.274;7.796;2023-04-15T14:16:25;4.25;;;1.30;;
7359;SDS011;3720;48.274;7.796;2023-04-15T14:18:57;4.57;;;1.10;;
7359;SDS011;3720;48.274;7.796;2023-04-15T14:21:29;3.50;;;1.10;;
7359;SDS011;3720;48.274;7.796;2023-04-15T14:24:02;2.90;;;1.10;;
7359;SDS011;3720;48.274;7.796;2023-04-15T14:26:35;4.15;;;1.30;;
7359;SDS011;3720;48.274;7.796;2023-04-15T14:29:08;3.47;;;1.40;;
7359;SDS011;3720;48.274;7.796;2023-04-15T14:31:40;2.72;;;1.13;;
7359;SDS011;3720;48.274;7.796;2023-04-15T14:34:13;3.42;;;1.60;;
7359;SDS011;3720;48.274;7.796;2023-04-15T14:36:46;2.85;;;1.58;;
7359;SDS011;3720;48.274;7.796;2023-04-15T14:39:18;3.50;;;1.73;;
7359;SDS011;3720;48.274;7.796;2023-04-15T14:41:49;3.45;;;1.27;;
7359;SDS011;3720;48.274;7.796;2023-04-15T14:44:23;5.25;;;2.47;;
7359;SDS011;3720;48.274;7.796;2023-04-15T14:46:55;4.25;;;1.70;;
7359;SDS011;3720;48.274;7.796;2023-04-15T14:49:26;7.82;;;2.25;;
7359;SDS011;3720;48.274;7.796;2023-04-15T14:51:59;2.25;;;1.38;;
7359;SDS011;3720;48.274;7.796;2023-04-15T14:54:31;4.68;;;1.38;;
7359;SDS011;3720;48.274;7.796;2023-04-15T14:57:03;3.17;;;1.48;;
7359;SDS011;3720;48.274;7.796;2023-04-15T14:59:36;3.95;;;1.40;;
7359;SDS011;3720;48.274;7.796;2023-04-15T15:02:08;2.90;;;1.20;;
7359;SDS011;3720;48.274;7.796;2023-04-15T15:04:40;3.65;;;1.45;;
7359;SDS011;3720;48.274;7.796;2023-04-15T15:07:12;3.55;;;1.45;;
7359;SDS011;3720;48.274;7.796;2023-04-15T15:09:44;4.28;;;1.60;;
7359;SDS011;3720;48.274;7.796;2023-04-15T15:12:16;7.63;;;2.03;;
7359;SDS011;3720;48.274;7.796;2023-04-15T15:14:49;4.38;;;1.50;;
7359;SDS011;3720;48.274;7.796;2023-04-15T15:17:21;3.35;;;1.50;;
7359;SDS011;3720;48.274;7.796;2023-04-15T15:19:53;4.63;;;1.77;;
7359;SDS011;3720;48.274;7.796;2023-04-15T15:22:25;4.50;;;1.52;;
7359;SDS011;3720;48.274;7.796;2023-04-15T15:24:57;4.15;;;1.65;;
7359;SDS011;3720;48.274;7.796;2023-04-15T15:27:31;4.85;;;1.80;;
7359;SDS011;3720;48.274;7.796;2023-04-15T15:30:05;5.20;;;1.80;;
7359;SDS011;3720;48.274;7.796;2023-04-15T15:32:39;3.92;;;1.50;;
7359;SDS011;3720;48.274;7.796;2023-04-15T15:35:12;2.92;;;1.60;;
7359;SDS011;3720;48.274;7.796;2023-04-15T15:37:44;6.03;;;1.88;;
7359;SDS011;3720;48.274;7.796;2023-04-15T15:40:15;4.85;;;1.63;;
7359;SDS011;3720;48.274;7.796;2023-04-15T15:42:47;3.60;;;1.90;;
7359;SDS011;3720;48.274;7.796;2023-04-15T15:45:21;5.13;;;2.53;;
7359;SDS011;3720;48.274;7.796;2023-04-15T15:47:53;8.77;;;3.20;;
7359;SDS011;3720;48.274;7.796;2023-04-15T15:50:26;5.40;;;2.00;;
7359;SDS011;3720;48.274;7.796;2023-04-15T15:52:58;3.83;;;1.70;;
7359;SDS011;3720;48.274;7.796;2023-04-15T15:55:30;4.22;;;1.70;;
7359;SDS011;3720;48.274;7.796;2023-04-15T15:58:02;5.10;;;1.85;;
7359;SDS011;3720;48.274;7.796;2023-04-15T16:00:35;3.63;;;1.60;;
7359;SDS011;3720;48.274;7.796;2023-04-15T16:03:07;4.05;;;2.00;;